sensor_id;sensor_type;location;lat;lon;timestamp;pressure;altitude;pressure_sealevel;temperature;humidity
41830;BME280;38614;43.472;23.936;2023-03-17T00:01:35;100779.00;;;3.27;100.00
41830;BME280;38614;43.472;23.936;2023-03-17T00:04:24;100772.63;;;3.12;100.00
41830;BME280;38614;43.472;23.936;2023-03-17T00:07:16;100774.78;;;3.15;100.00
41830;BME280;38614;43.472;23.936;2023-03-17T00:10:05;100788.16;;;3.17;100.00
41830;BME280;38614;43.472;23.936;2023-03-17T00:12:54;100777.13;;;3.03;100.00
41830;BME280;38614;43.472;23.936;2023-03-17T00:15:50;100787.53;;;3.01;100.00
41830;BME280;38614;43.472;23.936;2023-03-17T00:18:39;100771.03;;;2.88;100.00
41830;BME280;38614;43.472;23.936;2023-03-17T00:21:30;100761.78;;;2.89;100.00
41830;BME280;38614;43.472;23.936;2023-03-17T00:24:18;100792.69;;;3.03;100.00
41830;BME280;38614;43.472;23.936;2023-03-17T00:27:12;100757.41;;;2.88;100.00
41830;BME280;38614;43.472;23.936;2023-03-17T00:30:00;100774.56;;;3.12;100.00
41830;BME280;38614;43.472;23.936;2023-03-17T00:32:49;100767.63;;;3.20;100.00
41830;BME280;38614;43.472;23.936;2023-03-17T00:35:39;100762.88;;;3.25;100.00
41830;BME280;38614;43.472;23.936;2023-03-17T00:38:27;100763.28;;;3.19;100.00
41830;BME280;38614;43.472;23.936;2023-03-17T00:41:17;100766.00;;;3.19;100.00
41830;BME280;38614;43.472;23.936;2023-03-17T00:44:05;100763.56;;;3.17;100.00
41830;BME280;38614;43.472;23.936;2023-03-17T00:46:53;100759.94;;;3.22;100.00
41830;BME280;38614;43.472;23.936;2023-03-17T00:49:48;100752.88;;;3.21;100.00
41830;BME280;38614;43.472;23.936;2023-03-17T00:52:36;100759.28;;;3.11;100.00
41830;BME280;38614;43.472;23.936;2023-03-17T00:55:25;100736.00;;;2.95;100.00
41830;BME280;38614;43.472;23.936;2023-03-17T01:01:12;100764.94;;;3.14;100.00
41830;BME280;38614;43.472;23.936;2023-03-17T01:04:00;100754.16;;;3.04;100.00
41830;BME280;38614;43.472;23.936;2023-03-17T01:06:48;100768.63;;;3.05;100.00
41830;BME280;38614;43.472;23.936;2023-03-17T01:09:38;100771.38;;;3.05;100.00
41830;BME280;38614;43.472;23.936;2023-03-17T01:12:27;100768.34;;;3.06;100.00
41830;BME280;38614;43.472;23.936;2023-03-17T01:15:15;100751.66;;;2.89;100.00
41830;BME280;38614;43.472;23.936;2023-03-17T01:18:03;100762.03;;;2.87;100.00
41830;BME280;38614;43.472;23.936;2023-03-17T01:20:51;100778.59;;;2.96;100.00
41830;BME280;38614;43.472;23.936;2023-03-17T01:23:40;100755.47;;;2.88;100.00
41830;BME280;38614;43.472;23.936;2023-03-17T01:26:28;100786.94;;;3.04;100.00
41830;BME280;38614;43.472;23.936;2023-03-17T01:29:16;100777.63;;;3.05;100.00
41830;BME280;38614;43.472;23.936;2023-03-17T01:32:05;100777.06;;;3.08;100.00
41830;BME280;38614;43.472;23.936;2023-03-17T01:34:52;100792.34;;;3.09;100.00
41830;BME280;38614;43.472;23.936;2023-03-17T01:37:40;100762.84;;;2.88;100.00
41830;BME280;38614;43.472;23.936;2023-03-17T01:40:31;100794.31;;;3.04;100.00
41830;BME280;38614;43.472;23.936;2023-03-17T01:43:25;100805.19;;;3.09;100.00
41830;BME280;38614;43.472;23.936;2023-03-17T01:46:31;100789.06;;;2.89;100.00
41830;BME280;38614;43.472;23.936;2023-03-17T01:49:29;100808.22;;;3.07;100.00
41830;BME280;38614;43.472;23.936;2023-03-17T01:52:20;100807.50;;;2.97;100.00
41830;BME280;38614;43.472;23.936;2023-03-17T01:55:11;100805.53;;;3.02;100.00
41830;BME280;38614;43.472;23.936;2023-03-17T01:58:01;100800.13;;;2.97;100.00
41830;BME280;38614;43.472;23.936;2023-03-17T02:00:49;100787.41;;;2.88;100.00
41830;BME280;38614;43.472;23.936;2023-03-17T02:03:40;100812.75;;;2.93;100.00
41830;BME280;38614;43.472;23.936;2023-03-17T02:06:29;100809.50;;;2.91;100.00
41830;BME280;38614;43.472;23.936;2023-03-17T02:09:17;100806.72;;;2.72;100.00
41830;BME280;38614;43.472;23.936;2023-03-17T02:12:05;100807.94;;;2.85;100.00
41830;BME280;38614;43.472;23.936;2023-03-17T02:14:55;100798.72;;;2.81;100.00
41830;BME280;38614;43.472;23.936;2023-03-17T02:17:43;100801.31;;;2.91;100.00
41830;BME280;38614;43.472;23.936;2023-03-17T02:23:20;100818.13;;;2.79;100.00
41830;BME280;38614;43.472;23.936;2023-03-17T02:26:29;100790.88;;;2.74;100.00
41830;BME280;38614;43.472;23.936;2023-03-17T02:29:20;100814.97;;;2.91;100.00
41830;BME280;38614;43.472;23.936;2023-03-17T02:32:08;100829.56;;;2.81;100.00
41830;BME280;38614;43.472;23.936;2023-03-17T02:34:56;100816.66;;;2.63;100.00
41830;BME280;38614;43.472;23.936;2023-03-17T02:37:44;100832.97;;;2.92;100.00
41830;BME280;38614;43.472;23.936;2023-03-17T02:40:33;100816.13;;;2.85;100.00
41830;BME280;38614;43.472;23.936;2023-03-17T02:43:20;100833.13;;;2.77;100.00
41830;BME280;38614;43.472;23.936;2023-03-17T02:46:08;100801.59;;;2.66;100.00
41830;BME280;38614;43.472;23.936;2023-03-17T02:48:56;100843.94;;;2.87;100.00
41830;BME280;38614;43.472;23.936;2023-03-17T02:51:44;100824.38;;;2.80;100.00
41830;BME280;38614;43.472;23.936;2023-03-17T02:54:32;100838.31;;;3.02;100.00
41830;BME280;38614;43.472;23.936;2023-03-17T02:57:20;100815.22;;;2.71;100.00
41830;BME280;38614;43.472;23.936;2023-03-17T03:00:09;100820.88;;;2.74;100.00
41830;BME280;38614;43.472;23.936;2023-03-17T03:02:57;100828.84;;;2.71;100.00
41830;BME280;38614;43.472;23.936;2023-03-17T03:05:45;100855.22;;;2.80;100.00
41830;BME280;38614;43.472;23.936;2023-03-17T03:08:33;100849.88;;;2.94;100.00
41830;BME280;38614;43.472;23.936;2023-03-17T03:11:21;100851.75;;;2.99;100.00
41830;BME280;38614;43.472;23.936;2023-03-17T03:14:12;100853.53;;;3.08;100.00
41830;BME280;38614;43.472;23.936;2023-03-17T03:17:03;100857.06;;;3.09;100.00
41830;BME280;38614;43.472;23.936;2023-03-17T03:19:52;100856.91;;;3.00;100.00
41830;BME280;38614;43.472;23.936;2023-03-17T03:22:40;100852.34;;;3.14;100.00
41830;BME280;38614;43.472;23.936;2023-03-17T03:25:28;100860.84;;;3.13;100.00
41830;BME280;38614;43.472;23.936;2023-03-17T03:28:16;100863.75;;;2.98;100.00
41830;BME280;38614;43.472;23.936;2023-03-17T03:31:05;100865.13;;;2.95;100.00
41830;BME280;38614;43.472;23.936;2023-03-17T03:33:54;100861.78;;;2.79;100.00
41830;BME280;38614;43.472;23.936;2023-03-17T03:36:42;100864.78;;;3.02;100.00
41830;BME280;38614;43.472;23.936;2023-03-17T03:39:29;100870.94;;;3.12;100.00
41830;BME280;38614;43.472;23.936;2023-03-17T03:42:18;100869.38;;;3.06;100.00
41830;BME280;38614;43.472;23.936;2023-03-17T03:45:06;100877.28;;;2.84;100.00
41830;BME280;38614;43.472;23.936;2023-03-17T03:47:54;100875.84;;;2.92;100.00
41830;BME280;38614;43.472;23.936;2023-03-17T03:50:42;100862.22;;;2.86;100.00
41830;BME280;38614;43.472;23.936;2023-03-17T03:53:30;100849.66;;;2.91;100.00
41830;BME280;38614;43.472;23.936;2023-03-17T03:56:17;100863.59;;;2.89;100.00
41830;BME280;38614;43.472;23.936;2023-03-17T03:59:05;100862.66;;;2.99;100.00
41830;BME280;38614;43.472;23.936;2023-03-17T04:01:53;100886.63;;;3.02;100.00
41830;BME280;38614;43.472;23.936;2023-03-17T04:04:41;100881.97;;;2.78;100.00
41830;BME280;38614;43.472;23.936;2023-03-17T04:07:30;100886.06;;;2.81;100.00
41830;BME280;38614;43.472;23.936;2023-03-17T04:10:18;100882.69;;;2.89;100.00
41830;BME280;38614;43.472;23.936;2023-03-17T04:13:05;100889.50;;;2.92;100.00
41830;BME280;38614;43.472;23.936;2023-03-17T04:15:55;100886.28;;;2.84;100.00
41830;BME280;38614;43.472;23.936;2023-03-17T04:18:43;100875.13;;;2.81;100.00
41830;BME280;38614;43.472;23.936;2023-03-17T04:21:32;100915.28;;;3.04;100.00
41830;BME280;38614;43.472;23.936;2023-03-17T04:24:20;100915.56;;;3.03;100.00
41830;BME280;38614;43.472;23.936;2023-03-17T04:27:09;100895.97;;;2.72;100.00
41830;BME280;38614;43.472;23.936;2023-03-17T04:29:56;100904.34;;;2.80;100.00
41830;BME280;38614;43.472;23.936;2023-03-17T04:32:44;100900.16;;;2.88;100.00
41830;BME280;38614;43.472;23.936;2023-03-17T04:35:32;100919.50;;;2.92;100.00
41830;BME280;38614;43.472;23.936;2023-03-17T04:38:20;100921.19;;;2.88;100.00
41830;BME280;38614;43.472;23.936;2023-03-17T04:41:08;100928.00;;;2.90;100.00
41830;BME280;38614;43.472;23.936;2023-03-17T04:44:07;100929.22;;;3.03;100.00
41830;BME280;38614;43.472;23.936;2023-03-17T04:46:57;100923.91;;;2.88;100.00
41830;BME280;38614;43.472;23.936;2023-03-17T04:49:48;100940.59;;;2.86;100.00
41830;BME280;38614;43.472;23.936;2023-03-17T04:52:38;100942.75;;;2.89;100.00
41830;BME280;38614;43.472;23.936;2023-03-17T04:55:27;100940.16;;;3.03;100.00
41830;BME280;38614;43.472;23.936;2023-03-17T04:58:15;100946.13;;;3.05;100.00
41830;BME280;38614;43.472;23.936;2023-03-17T05:01:16;100942.53;;;3.09;100.00
41830;BME280;38614;43.472;23.936;2023-03-17T05:04:04;100950.09;;;3.18;100.00
41830;BME280;38614;43.472;23.936;2023-03-17T05:06:59;100927.81;;;3.05;100.00
41830;BME280;38614;43.472;23.936;2023-03-17T05:09:47;100945.97;;;3.20;100.00
41830;BME280;38614;43.472;23.936;2023-03-17T05:12:35;100923.66;;;3.13;100.00
41830;BME280;38614;43.472;23.936;2023-03-17T05:15:23;100946.50;;;3.22;100.00
41830;BME280;38614;43.472;23.936;2023-03-17T05:18:10;100921.13;;;2.93;100.00
41830;BME280;38614;43.472;23.936;2023-03-17T05:20:58;100949.47;;;2.97;100.00
41830;BME280;38614;43.472;23.936;2023-03-17T05:23:46;100960.94;;;2.99;100.00
41830;BME280;38614;43.472;23.936;2023-03-17T05:26:34;100968.25;;;3.03;100.00
41830;BME280;38614;43.472;23.936;2023-03-17T05:29:22;100954.84;;;3.07;100.00
41830;BME280;38614;43.472;23.936;2023-03-17T05:32:10;100947.13;;;3.14;100.00
41830;BME280;38614;43.472;23.936;2023-03-17T05:34:58;100936.19;;;3.14;100.00
41830;BME280;38614;43.472;23.936;2023-03-17T05:37:45;100965.16;;;3.39;100.00
41830;BME280;38614;43.472;23.936;2023-03-17T05:40:33;100960.16;;;3.46;100.00
41830;BME280;38614;43.472;23.936;2023-03-17T05:43:22;100971.31;;;3.50;100.00
41830;BME280;38614;43.472;23.936;2023-03-17T05:46:09;100980.81;;;3.52;100.00
41830;BME280;38614;43.472;23.936;2023-03-17T05:48:57;100976.94;;;3.58;100.00
41830;BME280;38614;43.472;23.936;2023-03-17T05:51:45;100959.09;;;3.42;100.00
41830;BME280;38614;43.472;23.936;2023-03-17T05:54:33;100987.75;;;3.68;100.00
41830;BME280;38614;43.472;23.936;2023-03-17T05:57:21;100988.22;;;3.76;100.00
41830;BME280;38614;43.472;23.936;2023-03-17T06:00:11;100998.03;;;3.77;100.00
41830;BME280;38614;43.472;23.936;2023-03-17T06:02:59;100966.91;;;3.54;100.00
41830;BME280;38614;43.472;23.936;2023-03-17T06:05:50;100995.50;;;3.80;100.00
41830;BME280;38614;43.472;23.936;2023-03-17T06:08:38;100980.06;;;3.70;100.00
41830;BME280;38614;43.472;23.936;2023-03-17T06:11:26;100993.03;;;3.84;100.00
41830;BME280;38614;43.472;23.936;2023-03-17T06:14:14;101002.41;;;3.78;100.00
41830;BME280;38614;43.472;23.936;2023-03-17T06:17:01;100958.53;;;3.45;100.00
41830;BME280;38614;43.472;23.936;2023-03-17T06:19:49;101015.88;;;3.69;100.00
41830;BME280;38614;43.472;23.936;2023-03-17T06:22:38;101023.44;;;3.53;100.00
41830;BME280;38614;43.472;23.936;2023-03-17T06:25:37;100998.84;;;3.53;100.00
41830;BME280;38614;43.472;23.936;2023-03-17T06:28:25;101021.53;;;3.78;100.00
41830;BME280;38614;43.472;23.936;2023-03-17T06:31:13;101022.59;;;3.82;100.00
41830;BME280;38614;43.472;23.936;2023-03-17T06:34:01;101040.41;;;3.98;100.00
41830;BME280;38614;43.472;23.936;2023-03-17T06:36:49;101037.03;;;4.06;100.00
41830;BME280;38614;43.472;23.936;2023-03-17T06:39:37;101035.75;;;3.98;100.00
41830;BME280;38614;43.472;23.936;2023-03-17T06:42:27;101035.34;;;4.10;100.00
41830;BME280;38614;43.472;23.936;2023-03-17T06:45:18;101041.47;;;4.02;100.00
41830;BME280;38614;43.472;23.936;2023-03-17T06:48:06;101023.56;;;3.91;100.00
41830;BME280;38614;43.472;23.936;2023-03-17T06:50:54;101044.41;;;4.06;100.00
41830;BME280;38614;43.472;23.936;2023-03-17T06:53:42;101035.84;;;4.12;100.00
41830;BME280;38614;43.472;23.936;2023-03-17T06:56:29;101018.19;;;4.05;100.00
41830;BME280;38614;43.472;23.936;2023-03-17T06:59:19;101042.81;;;4.23;100.00
41830;BME280;38614;43.472;23.936;2023-03-17T07:02:08;101006.88;;;4.11;100.00
41830;BME280;38614;43.472;23.936;2023-03-17T07:04:56;101043.47;;;4.34;100.00
41830;BME280;38614;43.472;23.936;2023-03-17T07:07:45;101027.81;;;4.21;100.00
41830;BME280;38614;43.472;23.936;2023-03-17T07:10:33;101033.63;;;4.14;100.00
41830;BME280;38614;43.472;23.936;2023-03-17T07:13:24;101008.81;;;4.29;100.00
41830;BME280;38614;43.472;23.936;2023-03-17T07:16:12;101024.09;;;4.49;100.00
41830;BME280;38614;43.472;23.936;2023-03-17T07:19:00;101016.78;;;4.45;100.00
41830;BME280;38614;43.472;23.936;2023-03-17T07:21:48;101009.00;;;4.52;100.00
41830;BME280;38614;43.472;23.936;2023-03-17T07:24:36;101007.44;;;4.46;100.00
41830;BME280;38614;43.472;23.936;2023-03-17T07:27:23;101032.84;;;4.51;100.00
41830;BME280;38614;43.472;23.936;2023-03-17T07:30:13;101025.66;;;4.37;100.00
41830;BME280;38614;43.472;23.936;2023-03-17T07:33:05;101023.88;;;4.46;100.00
41830;BME280;38614;43.472;23.936;2023-03-17T07:35:53;101023.81;;;4.51;100.00
41830;BME280;38614;43.472;23.936;2023-03-17T07:38:41;101014.66;;;4.74;100.00
41830;BME280;38614;43.472;23.936;2023-03-17T07:41:30;101010.50;;;4.44;100.00
41830;BME280;38614;43.472;23.936;2023-03-17T07:44:17;101031.13;;;4.55;100.00
41830;BME280;38614;43.472;23.936;2023-03-17T07:47:07;101040.34;;;4.78;100.00
41830;BME280;38614;43.472;23.936;2023-03-17T07:49:54;101014.25;;;4.67;100.00
41830;BME280;38614;43.472;23.936;2023-03-17T07:52:42;101028.16;;;5.03;100.00
41830;BME280;38614;43.472;23.936;2023-03-17T07:55:31;101035.09;;;5.28;100.00
41830;BME280;38614;43.472;23.936;2023-03-17T07:58:19;101037.56;;;5.43;100.00
41830;BME280;38614;43.472;23.936;2023-03-17T08:01:08;101004.25;;;5.36;100.00
41830;BME280;38614;43.472;23.936;2023-03-17T08:03:56;101028.63;;;5.65;100.00
41830;BME280;38614;43.472;23.936;2023-03-17T08:06:44;101012.41;;;5.69;100.00
41830;BME280;38614;43.472;23.936;2023-03-17T08:09:33;101001.94;;;5.71;100.00
41830;BME280;38614;43.472;23.936;2023-03-17T08:12:20;101018.41;;;5.98;100.00
41830;BME280;38614;43.472;23.936;2023-03-17T08:15:08;101024.00;;;5.93;100.00
41830;BME280;38614;43.472;23.936;2023-03-17T08:17:56;101003.75;;;6.17;100.00
41830;BME280;38614;43.472;23.936;2023-03-17T08:20:44;101029.66;;;6.24;100.00
41830;BME280;38614;43.472;23.936;2023-03-17T08:23:32;100986.47;;;6.03;100.00
41830;BME280;38614;43.472;23.936;2023-03-17T08:26:20;101016.34;;;6.18;100.00
41830;BME280;38614;43.472;23.936;2023-03-17T08:29:08;101032.00;;;6.76;100.00
41830;BME280;38614;43.472;23.936;2023-03-17T08:31:56;101028.06;;;6.46;100.00
41830;BME280;38614;43.472;23.936;2023-03-17T08:34:44;101011.44;;;7.18;100.00
41830;BME280;38614;43.472;23.936;2023-03-17T08:37:32;101020.19;;;7.60;100.00
41830;BME280;38614;43.472;23.936;2023-03-17T08:40:20;101033.44;;;8.06;100.00
41830;BME280;38614;43.472;23.936;2023-03-17T08:43:08;101019.19;;;7.95;100.00
41830;BME280;38614;43.472;23.936;2023-03-17T08:46:22;101022.34;;;8.46;100.00
41830;BME280;38614;43.472;23.936;2023-03-17T08:49:11;101029.16;;;8.83;100.00
41830;BME280;38614;43.472;23.936;2023-03-17T08:51:59;101015.28;;;9.26;100.00
41830;BME280;38614;43.472;23.936;2023-03-17T08:54:48;101020.34;;;9.16;100.00
41830;BME280;38614;43.472;23.936;2023-03-17T08:57:35;101031.84;;;9.26;100.00
41830;BME280;38614;43.472;23.936;2023-03-17T09:00:24;101027.34;;;9.04;100.00
41830;BME280;38614;43.472;23.936;2023-03-17T09:03:13;101015.38;;;8.83;100.00
41830;BME280;38614;43.472;23.936;2023-03-17T09:06:01;101021.75;;;9.30;100.00
41830;BME280;38614;43.472;23.936;2023-03-17T09:08:52;101035.63;;;9.04;100.00
41830;BME280;38614;43.472;23.936;2023-03-17T09:11:43;101038.38;;;9.13;100.00
41830;BME280;38614;43.472;23.936;2023-03-17T09:14:31;101036.50;;;9.43;100.00
41830;BME280;38614;43.472;23.936;2023-03-17T09:17:29;101039.81;;;9.02;100.00
41830;BME280;38614;43.472;23.936;2023-03-17T09:20:17;101029.53;;;9.37;100.00
41830;BME280;38614;43.472;23.936;2023-03-17T09:23:06;101044.09;;;9.46;100.00
41830;BME280;38614;43.472;23.936;2023-03-17T09:25:54;101044.31;;;9.79;100.00
41830;BME280;38614;43.472;23.936;2023-03-17T09:28:43;101034.84;;;9.59;100.00
41830;BME280;38614;43.472;23.936;2023-03-17T09:31:31;101028.25;;;9.73;100.00
41830;BME280;38614;43.472;23.936;2023-03-17T09:34:19;101025.75;;;9.59;100.00
41830;BME280;38614;43.472;23.936;2023-03-17T09:37:07;101044.06;;;9.93;100.00
41830;BME280;38614;43.472;23.936;2023-03-17T09:39:56;101041.09;;;10.07;100.00
41830;BME280;38614;43.472;23.936;2023-03-17T09:43:08;101051.56;;;9.92;100.00
41830;BME280;38614;43.472;23.936;2023-03-17T09:46:08;101051.75;;;9.87;100.00
41830;BME280;38614;43.472;23.936;2023-03-17T09:49:06;101037.22;;;9.99;100.00
41830;BME280;38614;43.472;23.936;2023-03-17T09:51:54;101045.88;;;9.59;100.00
41830;BME280;38614;43.472;23.936;2023-03-17T09:54:43;101022.41;;;9.74;100.00
41830;BME280;38614;43.472;23.936;2023-03-17T09:57:37;101052.53;;;9.96;100.00
41830;BME280;38614;43.472;23.936;2023-03-17T10:00:27;101054.50;;;9.87;100.00
41830;BME280;38614;43.472;23.936;2023-03-17T10:03:17;101015.59;;;10.01;100.00
41830;BME280;38614;43.472;23.936;2023-03-17T10:12:09;101042.56;;;10.34;100.00
41830;BME280;38614;43.472;23.936;2023-03-17T10:15:02;101028.75;;;11.08;100.00
41830;BME280;38614;43.472;23.936;2023-03-17T10:17:53;101017.69;;;10.75;100.00
41830;BME280;38614;43.472;23.936;2023-03-17T10:20:57;101012.31;;;10.58;100.00
41830;BME280;38614;43.472;23.936;2023-03-17T10:23:46;101034.34;;;10.67;100.00
41830;BME280;38614;43.472;23.936;2023-03-17T10:26:38;101026.59;;;10.39;100.00
41830;BME280;38614;43.472;23.936;2023-03-17T10:29:29;101008.59;;;10.04;100.00
41830;BME280;38614;43.472;23.936;2023-03-17T10:32:18;101022.22;;;10.80;100.00
41830;BME280;38614;43.472;23.936;2023-03-17T10:35:06;100993.72;;;10.46;100.00
41830;BME280;38614;43.472;23.936;2023-03-17T10:37:55;101020.41;;;10.96;100.00
41830;BME280;38614;43.472;23.936;2023-03-17T10:41:05;100983.72;;;11.32;100.00
41830;BME280;38614;43.472;23.936;2023-03-17T10:43:56;100983.06;;;10.90;100.00
41830;BME280;38614;43.472;23.936;2023-03-17T10:46:52;100992.47;;;11.10;100.00
41830;BME280;38614;43.472;23.936;2023-03-17T10:49:42;100973.31;;;11.05;100.00
41830;BME280;38614;43.472;23.936;2023-03-17T10:52:35;101012.66;;;11.23;100.00
41830;BME280;38614;43.472;23.936;2023-03-17T10:55:27;100993.25;;;10.44;100.00
41830;BME280;38614;43.472;23.936;2023-03-17T10:58:42;100998.28;;;9.92;100.00
41830;BME280;38614;43.472;23.936;2023-03-17T11:01:27;101003.75;;;10.30;100.00
41830;BME280;38614;43.472;23.936;2023-03-17T11:04:31;100975.97;;;11.13;100.00
41830;BME280;38614;43.472;23.936;2023-03-17T11:07:26;100990.41;;;10.86;100.00
41830;BME280;38614;43.472;23.936;2023-03-17T11:10:24;100995.78;;;10.70;100.00
41830;BME280;38614;43.472;23.936;2023-03-17T11:13:16;100991.16;;;10.12;100.00
41830;BME280;38614;43.472;23.936;2023-03-17T11:16:20;100974.25;;;9.63;100.00
41830;BME280;38614;43.472;23.936;2023-03-17T11:19:14;100972.00;;;10.15;100.00
41830;BME280;38614;43.472;23.936;2023-03-17T11:22:13;100983.63;;;10.83;100.00
41830;BME280;38614;43.472;23.936;2023-03-17T11:25:17;100994.94;;;10.37;100.00
41830;BME280;38614;43.472;23.936;2023-03-17T11:28:18;100978.41;;;9.78;100.00
41830;BME280;38614;43.472;23.936;2023-03-17T11:31:13;100973.53;;;9.75;100.00
41830;BME280;38614;43.472;23.936;2023-03-17T11:34:09;100987.88;;;10.18;100.00
41830;BME280;38614;43.472;23.936;2023-03-17T11:56:24;100978.88;;;10.51;100.00
41830;BME280;38614;43.472;23.936;2023-03-17T11:59:37;100977.88;;;10.55;100.00
41830;BME280;38614;43.472;23.936;2023-03-17T12:05:21;100961.75;;;10.16;100.00
41830;BME280;38614;43.472;23.936;2023-03-17T12:08:21;100961.13;;;10.10;100.00
41830;BME280;38614;43.472;23.936;2023-03-17T12:11:13;100975.66;;;9.78;100.00
41830;BME280;38614;43.472;23.936;2023-03-17T12:14:06;100979.72;;;9.42;100.00
41830;BME280;38614;43.472;23.936;2023-03-17T12:17:24;100956.66;;;9.00;100.00
41830;BME280;38614;43.472;23.936;2023-03-17T12:20:20;100956.13;;;9.15;100.00
41830;BME280;38614;43.472;23.936;2023-03-17T12:26:20;100967.88;;;9.71;100.00
41830;BME280;38614;43.472;23.936;2023-03-17T12:29:14;100966.72;;;10.02;100.00
41830;BME280;38614;43.472;23.936;2023-03-17T12:38:38;100955.88;;;9.96;100.00
41830;BME280;38614;43.472;23.936;2023-03-17T12:47:50;100950.25;;;10.35;100.00
41830;BME280;38614;43.472;23.936;2023-03-17T12:53:54;100959.50;;;10.72;100.00
41830;BME280;38614;43.472;23.936;2023-03-17T12:56:44;100962.69;;;10.62;100.00
41830;BME280;38614;43.472;23.936;2023-03-17T12:59:34;100965.50;;;10.74;100.00
41830;BME280;38614;43.472;23.936;2023-03-17T13:05:17;100962.63;;;10.70;100.00
41830;BME280;38614;43.472;23.936;2023-03-17T13:08:38;100957.38;;;10.56;100.00
41830;BME280;38614;43.472;23.936;2023-03-17T13:11:45;100956.25;;;10.70;100.00
41830;BME280;38614;43.472;23.936;2023-03-17T13:14:50;100942.78;;;10.35;100.00
41830;BME280;38614;43.472;23.936;2023-03-17T13:17:38;100952.09;;;10.64;100.00
41830;BME280;38614;43.472;23.936;2023-03-17T13:20:36;100942.78;;;10.68;100.00
41830;BME280;38614;43.472;23.936;2023-03-17T13:23:45;100924.31;;;10.60;100.00
41830;BME280;38614;43.472;23.936;2023-03-17T13:29:43;100869.69;;;9.91;100.00
41830;BME280;38614;43.472;23.936;2023-03-17T13:32:33;100950.78;;;10.49;100.00
41830;BME280;38614;43.472;23.936;2023-03-17T13:45:08;100942.72;;;10.14;100.00
41830;BME280;38614;43.472;23.936;2023-03-17T13:48:20;100940.31;;;10.13;100.00
41830;BME280;38614;43.472;23.936;2023-03-17T13:51:18;100934.69;;;10.30;100.00
41830;BME280;38614;43.472;23.936;2023-03-17T14:00:25;100921.31;;;9.90;100.00
41830;BME280;38614;43.472;23.936;2023-03-17T14:06:18;100913.97;;;9.94;100.00
41830;BME280;38614;43.472;23.936;2023-03-17T14:12:43;100929.03;;;10.06;100.00
41830;BME280;38614;43.472;23.936;2023-03-17T14:15:38;100920.75;;;9.76;100.00
41830;BME280;38614;43.472;23.936;2023-03-17T14:18:34;100931.22;;;9.91;100.00
41830;BME280;38614;43.472;23.936;2023-03-17T14:21:31;100915.91;;;9.73;100.00
41830;BME280;38614;43.472;23.936;2023-03-17T14:24:32;100901.66;;;9.41;100.00
41830;BME280;38614;43.472;23.936;2023-03-17T14:27:23;100905.03;;;9.09;100.00
41830;BME280;38614;43.472;23.936;2023-03-17T14:33:25;100893.41;;;8.48;100.00
41830;BME280;38614;43.472;23.936;2023-03-17T14:36:13;100936.78;;;8.68;100.00
41830;BME280;38614;43.472;23.936;2023-03-17T14:39:01;100920.72;;;8.70;100.00
41830;BME280;38614;43.472;23.936;2023-03-17T14:42:01;100927.06;;;8.62;100.00
41830;BME280;38614;43.472;23.936;2023-03-17T14:45:05;100921.22;;;8.64;100.00
41830;BME280;38614;43.472;23.936;2023-03-17T14:47:54;100928.22;;;8.61;100.00
41830;BME280;38614;43.472;23.936;2023-03-17T14:50:56;100922.34;;;8.71;100.00
41830;BME280;38614;43.472;23.936;2023-03-17T14:53:53;100924.00;;;8.46;100.00
41830;BME280;38614;43.472;23.936;2023-03-17T14:56:50;100921.25;;;8.55;100.00
41830;BME280;38614;43.472;23.936;2023-03-17T14:59:43;100916.34;;;8.78;100.00
41830;BME280;38614;43.472;23.936;2023-03-17T15:02:55;100921.38;;;8.84;100.00
41830;BME280;38614;43.472;23.936;2023-03-17T15:05:43;100920.69;;;8.88;100.00
41830;BME280;38614;43.472;23.936;2023-03-17T15:08:40;100876.66;;;8.70;100.00
41830;BME280;38614;43.472;23.936;2023-03-17T15:11:42;100891.06;;;8.76;100.00
41830;BME280;38614;43.472;23.936;2023-03-17T15:14:36;100917.91;;;8.96;100.00
41830;BME280;38614;43.472;23.936;2023-03-17T15:17:29;100922.41;;;9.09;100.00
41830;BME280;38614;43.472;23.936;2023-03-17T15:20:18;100911.59;;;8.96;100.00
41830;BME280;38614;43.472;23.936;2023-03-17T15:23:20;100928.69;;;9.19;100.00
41830;BME280;38614;43.472;23.936;2023-03-17T15:26:20;100905.44;;;8.90;100.00
41830;BME280;38614;43.472;23.936;2023-03-17T15:29:09;100919.56;;;8.80;100.00
41830;BME280;38614;43.472;23.936;2023-03-17T15:35:03;100928.06;;;8.49;100.00
41830;BME280;38614;43.472;23.936;2023-03-17T15:37:50;100918.19;;;8.56;100.00
41830;BME280;38614;43.472;23.936;2023-03-17T15:40:39;100917.84;;;8.58;100.00
41830;BME280;38614;43.472;23.936;2023-03-17T15:43:27;100913.97;;;8.59;100.00
41830;BME280;38614;43.472;23.936;2023-03-17T15:46:26;100918.19;;;8.48;100.00
41830;BME280;38614;43.472;23.936;2023-03-17T15:49:17;100895.81;;;8.15;100.00
41830;BME280;38614;43.472;23.936;2023-03-17T15:52:19;100920.28;;;8.16;100.00
41830;BME280;38614;43.472;23.936;2023-03-17T15:55:22;100925.63;;;8.13;100.00
41830;BME280;38614;43.472;23.936;2023-03-17T15:58:10;100912.00;;;7.99;100.00
41830;BME280;38614;43.472;23.936;2023-03-17T16:00:59;100885.59;;;7.81;100.00
41830;BME280;38614;43.472;23.936;2023-03-17T16:03:49;100917.03;;;7.97;100.00
41830;BME280;38614;43.472;23.936;2023-03-17T16:06:38;100915.25;;;8.01;100.00
41830;BME280;38614;43.472;23.936;2023-03-17T16:09:26;100908.13;;;7.91;100.00